Time;durP1;ratioP1;P1;durP2;ratioP2;P2;SDS_P1;SDS_P2;PMS_P1;PMS_P2;Temp;Humidity;BMP_temperature;BMP_pressure;BME280_temperature;BME280_humidity;BME280_pressure;Samples;Min_cycle;Max_cycle;Signal;HPM_P1;HPM_P2
2023/04/09 00:01:07;;;;;;;1.67;1.40;;;;;;;;;;5068003;28;20123;-46
2023/04/09 05:09:41;;;;;;;3.63;2.70;;;;;;;;;;5065052;28;20077;-44
2023/04/09 05:12:08;;;;;;;2.80;2.25;;;;;;;;;;5067759;28;20332;-43
2023/04/09 05:14:34;;;;;;;3.38;2.55;;;;;;;;;;5067311;28;20104;-45
2023/04/09 05:17:00;;;;;;;3.78;2.75;;;;;;;;;;5074518;28;20065;-46
2023/04/09 05:19:26;;;;;;;4.82;2.53;;;;;;;;;;5087562;28;20549;-43
2023/04/09 05:21:52;;;;;;;3.35;2.30;;;;;;;;;;5067316;28;20083;-46
2023/04/09 05:24:18;;;;;;;3.10;2.53;;;;;;;;;;5072871;28;20089;-43
2023/04/09 05:26:44;;;;;;;3.33;2.47;;;;;;;;;;5089209;28;20113;-44
2023/04/09 05:29:10;;;;;;;2.78;2.10;;;;;;;;;;5077852;28;20106;-44
2023/04/09 05:31:37;;;;;;;3.58;2.35;;;;;;;;;;5068705;28;20061;-43
2023/04/09 05:34:03;;;;;;;3.47;2.53;;;;;;;;;;5068475;28;20104;-44
2023/04/09 05:36:29;;;;;;;2.95;2.10;;;;;;;;;;5069530;28;20152;-44
2023/04/09 05:38:56;;;;;;;3.38;2.20;;;;;;;;;;5068639;28;20069;-44
2023/04/09 05:41:22;;;;;;;3.30;2.50;;;;;;;;;;5069187;28;20079;-44
2023/04/09 05:43:48;;;;;;;3.00;2.22;;;;;;;;;;5068941;28;20443;-44
2023/04/09 05:46:14;;;;;;;3.03;2.42;;;;;;;;;;5068050;28;20081;-44
2023/04/09 05:48:40;;;;;;;3.40;2.10;;;;;;;;;;5063047;28;20472;-45
2023/04/09 05:51:06;;;;;;;3.60;2.60;;;;;;;;;;5071363;28;20073;-44
2023/04/09 05:53:32;;;;;;;3.67;2.47;;;;;;;;;;5091916;28;20096;-44
2023/04/09 05:55:58;;;;;;;3.25;1.98;;;;;;;;;;5062902;28;20444;-44
2023/04/09 05:58:24;;;;;;;2.83;2.20;;;;;;;;;;5068716;28;20069;-46
2023/04/09 06:00:51;;;;;;;3.60;2.50;;;;;;;;;;5068794;28;20516;-44
2023/04/09 06:03:17;;;;;;;2.92;2.17;;;;;;;;;;5069255;28;20077;-43
2023/04/09 06:05:45;;;;;;;3.05;2.20;;;;;;;;;;5068496;28;20615;-43
2023/04/09 06:08:12;;;;;;;2.67;2.25;;;;;;;;;;5049546;28;20203;-44
2023/04/09 06:10:38;;;;;;;3.25;2.55;;;;;;;;;;5066988;28;20077;-44
2023/04/09 06:13:05;;;;;;;3.33;2.38;;;;;;;;;;5067528;28;20590;-44
2023/04/09 06:15:32;;;;;;;2.67;2.05;;;;;;;;;;5067590;28;20273;-44
2023/04/09 06:18:00;;;;;;;2.60;2.13;;;;;;;;;;5064535;28;20189;-44
2023/04/09 06:20:26;;;;;;;3.45;2.25;;;;;;;;;;5066417;28;20069;-44
2023/04/09 06:22:52;;;;;;;3.80;2.70;;;;;;;;;;5068082;28;20467;-45
2023/04/09 06:25:18;;;;;;;4.00;2.60;;;;;;;;;;5067187;28;20167;-45
2023/04/09 06:27:44;;;;;;;3.00;2.42;;;;;;;;;;5065472;28;20540;-44
2023/04/09 06:30:10;;;;;;;3.20;2.45;;;;;;;;;;5066597;28;20459;-44
2023/04/09 06:32:36;;;;;;;3.03;2.53;;;;;;;;;;5067235;28;20096;-44
2023/04/09 06:35:02;;;;;;;2.90;2.60;;;;;;;;;;5068005;28;20061;-43
2023/04/09 06:37:28;;;;;;;4.22;2.28;;;;;;;;;;5068990;28;20081;-45
2023/04/09 06:39:54;;;;;;;3.03;2.55;;;;;;;;;;5068240;28;20556;-47
2023/04/09 06:42:20;;;;;;;3.70;2.53;;;;;;;;;;5069339;28;20552;-45
2023/04/09 06:44:46;;;;;;;2.92;2.30;;;;;;;;;;5068991;28;20632;-45
2023/04/09 06:47:12;;;;;;;3.00;2.50;;;;;;;;;;5068077;28;20107;-43
2023/04/09 06:49:39;;;;;;;2.53;2.00;;;;;;;;;;5067636;28;20069;-45
2023/04/09 06:52:06;;;;;;;5.10;2.67;;;;;;;;;;5068228;28;20101;-43
2023/04/09 06:54:32;;;;;;;3.55;2.45;;;;;;;;;;5068369;28;20116;-43
2023/04/09 06:56:58;;;;;;;3.42;2.42;;;;;;;;;;5068338;28;20567;-45
2023/04/09 06:59:25;;;;;;;3.00;2.30;;;;;;;;;;5067876;28;20100;-45
2023/04/09 07:01:51;;;;;;;2.90;2.10;;;;;;;;;;5067464;28;20077;-44
2023/04/09 07:04:17;;;;;;;2.85;1.98;;;;;;;;;;5067778;28;20231;-44
2023/04/09 07:06:43;;;;;;;2.80;2.13;;;;;;;;;;5067313;28;20077;-44
2023/04/09 07:09:09;;;;;;;2.13;1.85;;;;;;;;;;5050394;28;20164;-47
2023/04/09 07:11:35;;;;;;;2.60;2.10;;;;;;;;;;5055786;28;20169;-44
2023/04/09 07:14:01;;;;;;;2.83;1.92;;;;;;;;;;5064121;28;20093;-44
2023/04/09 07:16:27;;;;;;;2.85;2.28;;;;;;;;;;5062537;28;20077;-44
2023/04/09 07:18:53;;;;;;;2.45;2.05;;;;;;;;;;5067127;28;20087;-45
2023/04/09 07:21:20;;;;;;;2.38;2.03;;;;;;;;;;5066951;28;20459;-45
2023/04/09 07:23:46;;;;;;;2.15;1.77;;;;;;;;;;5066906;28;20678;-44
2023/04/09 07:26:12;;;;;;;2.40;2.00;;;;;;;;;;5067784;28;20146;-44
2023/04/09 07:28:39;;;;;;;2.85;2.03;;;;;;;;;;5066836;28;20498;-44
2023/04/09 07:31:05;;;;;;;1.90;1.60;;;;;;;;;;5061780;28;20612;-44
2023/04/09 07:33:31;;;;;;;2.88;2.05;;;;;;;;;;5067248;28;20084;-47
2023/04/09 07:35:57;;;;;;;3.08;1.70;;;;;;;;;;5068170;28;20081;-44
2023/04/09 07:38:23;;;;;;;3.28;2.30;;;;;;;;;;5066844;28;20132;-44
2023/04/09 07:40:49;;;;;;;2.97;2.28;;;;;;;;;;5066652;28;20704;-47
2023/04/09 07:43:15;;;;;;;3.22;2.45;;;;;;;;;;5066521;28;20142;-47
2023/04/09 07:45:43;;;;;;;3.13;2.08;;;;;;;;;;5085836;28;20112;-45
2023/04/09 07:48:09;;;;;;;2.60;1.80;;;;;;;;;;5089725;28;20099;-46
2023/04/09 07:50:35;;;;;;;2.65;1.98;;;;;;;;;;5091055;28;20076;-46
2023/04/09 07:53:01;;;;;;;2.58;1.88;;;;;;;;;;5084627;28;20077;-44
2023/04/09 07:55:27;;;;;;;2.25;1.70;;;;;;;;;;5070347;28;20088;-45
2023/04/09 07:57:53;;;;;;;2.35;1.83;;;;;;;;;;5070102;28;20081;-44
2023/04/09 08:00:19;;;;;;;2.65;1.85;;;;;;;;;;5070035;28;20074;-45
2023/04/09 08:02:45;;;;;;;1.92;1.38;;;;;;;;;;5070331;28;20160;-46
2023/04/09 08:05:12;;;;;;;2.33;1.67;;;;;;;;;;5070736;28;20100;-46
2023/04/09 08:07:38;;;;;;;1.70;1.58;;;;;;;;;;5069557;28;20665;-46
2023/04/09 08:10:05;;;;;;;2.22;1.73;;;;;;;;;;5070214;28;20073;-47
2023/04/09 08:12:31;;;;;;;2.38;1.75;;;;;;;;;;5049906;28;20093;-45
2023/04/09 08:14:57;;;;;;;1.60;1.48;;;;;;;;;;5050178;28;20076;-45
2023/04/09 08:17:23;;;;;;;2.05;1.70;;;;;;;;;;5050125;28;20077;-47
2023/04/09 08:19:49;;;;;;;1.60;1.50;;;;;;;;;;5049928;28;20670;-45
2023/04/09 08:22:16;;;;;;;1.80;1.63;;;;;;;;;;5048751;28;20556;-45
2023/04/09 08:24:42;;;;;;;2.25;1.70;;;;;;;;;;5048317;28;20498;-43
2023/04/09 08:27:09;;;;;;;2.45;1.80;;;;;;;;;;5049237;28;20077;-45
2023/04/09 08:29:39;;;;;;;1.40;1.30;;;;;;;;;;5048256;28;20069;-45
2023/04/09 08:32:05;;;;;;;3.35;1.83;;;;;;;;;;5047403;28;20195;-44
2023/04/09 08:34:31;;;;;;;1.67;1.30;;;;;;;;;;5045753;28;20077;-44
2023/04/09 08:36:58;;;;;;;1.52;1.42;;;;;;;;;;5047804;28;20077;-44
2023/04/09 08:39:24;;;;;;;1.95;1.50;;;;;;;;;;5047491;28;20398;-44
2023/04/09 08:41:52;;;;;;;1.90;1.60;;;;;;;;;;5048172;28;20069;-44
2023/04/09 08:44:18;;;;;;;1.85;1.38;;;;;;;;;;5048279;28;20073;-45
2023/04/09 08:46:44;;;;;;;2.55;1.90;;;;;;;;;;5047218;28;20107;-44
2023/04/09 08:49:10;;;;;;;1.63;1.52;;;;;;;;;;5051794;28;20070;-45
2023/04/09 08:51:36;;;;;;;1.33;1.23;;;;;;;;;;5048171;28;20200;-44
2023/04/09 08:54:02;;;;;;;1.65;1.50;;;;;;;;;;5048250;28;20097;-45
2023/04/09 08:56:28;;;;;;;1.67;1.35;;;;;;;;;;5048367;28;20749;-44
2023/04/09 08:58:55;;;;;;;1.60;1.42;;;;;;;;;;5046992;28;20460;-47
2023/04/09 09:01:21;;;;;;;1.35;1.25;;;;;;;;;;5048332;28;20074;-47
2023/04/09 09:03:52;;;;;;;2.35;1.20;;;;;;;;;;5047662;28;20069;-44
2023/04/09 09:06:22;;;;;;;1.73;1.40;;;;;;;;;;5048310;28;20433;-44
2023/04/09 09:09:08;;;;;;;1.83;1.55;;;;;;;;;;5036409;28;20132;-45
2023/04/09 09:11:35;;;;;;;1.85;1.33;;;;;;;;;;5040389;28;20172;-45
2023/04/09 09:14:08;;;;;;;2.10;1.58;;;;;;;;;;5047933;28;20089;-45
2023/04/09 09:16:38;;;;;;;1.48;1.23;;;;;;;;;;5058877;28;20104;-46
2023/04/09 09:19:05;;;;;;;2.30;1.50;;;;;;;;;;5066745;28;20065;-47
2023/04/09 09:21:32;;;;;;;2.05;1.55;;;;;;;;;;5067674;28;20080;-47
2023/04/09 09:23:58;;;;;;;1.88;1.67;;;;;;;;;;5067410;28;20073;-47
2023/04/09 09:26:26;;;;;;;2.30;1.83;;;;;;;;;;5068281;28;20092;-46
2023/04/09 09:28:52;;;;;;;1.98;1.38;;;;;;;;;;5067748;28;20136;-45
2023/04/09 09:31:20;;;;;;;1.60;1.33;;;;;;;;;;5067039;28;20088;-45
2023/04/09 09:33:47;;;;;;;2.03;1.58;;;;;;;;;;5067140;28;20155;-45
2023/04/09 09:36:13;;;;;;;1.90;1.60;;;;;;;;;;5067336;28;20073;-45
2023/04/09 09:38:55;;;;;;;1.63;1.30;;;;;;;;;;5066889;28;20159;-45
2023/04/09 09:41:22;;;;;;;1.60;1.40;;;;;;;;;;5067337;28;20072;-45
2023/04/09 09:43:48;;;;;;;1.60;1.40;;;;;;;;;;5067209;28;20118;-45
2023/04/09 09:46:15;;;;;;;1.73;1.10;;;;;;;;;;5066960;28;20733;-44
2023/04/09 09:48:41;;;;;;;1.38;1.27;;;;;;;;;;5066639;28;20077;-45
2023/04/09 09:51:11;;;;;;;1.67;1.30;;;;;;;;;;5066924;28;20123;-44
2023/04/09 09:53:38;;;;;;;1.23;1.10;;;;;;;;;;5066540;28;20095;-45
2023/04/09 09:56:11;;;;;;;1.40;1.13;;;;;;;;;;5065192;28;20083;-48
2023/04/09 09:58:40;;;;;;;1.20;1.10;;;;;;;;;;5066925;28;20100;-44
2023/04/09 10:01:09;;;;;;;2.35;1.40;;;;;;;;;;5062747;28;20513;-45
2023/04/09 10:03:37;;;;;;;3.90;3.08;;;;;;;;;;5066427;28;20072;-47
2023/04/09 10:06:03;;;;;;;2.85;2.40;;;;;;;;;;5066683;28;20081;-45
2023/04/09 10:08:32;;;;;;;2.63;2.03;;;;;;;;;;5075393;28;20101;-45
2023/04/09 10:10:58;;;;;;;2.97;2.00;;;;;;;;;;5065384;28;20173;-45
2023/04/09 10:13:28;;;;;;;3.00;1.80;;;;;;;;;;5076167;28;20175;-44
2023/04/09 10:15:54;;;;;;;1.70;1.50;;;;;;;;;;5075078;28;20180;-45
2023/04/09 10:18:21;;;;;;;1.33;1.00;;;;;;;;;;5087274;28;20072;-45
2023/04/09 10:20:54;;;;;;;1.70;1.40;;;;;;;;;;5078439;28;20081;-47
2023/04/09 10:23:32;;;;;;;2.13;1.58;;;;;;;;;;5067084;28;20073;-44
2023/04/09 10:25:58;;;;;;;1.20;1.10;;;;;;;;;;5066395;28;20088;-48
2023/04/09 10:28:24;;;;;;;1.55;1.35;;;;;;;;;;5067172;28;20439;-45
2023/04/09 10:30:50;;;;;;;1.35;0.90;;;;;;;;;;5066302;28;20097;-44
2023/04/09 10:33:18;;;;;;;1.00;0.90;;;;;;;;;;5065950;28;20614;-45
2023/04/09 10:35:46;;;;;;;1.45;1.23;;;;;;;;;;5066167;28;20077;-47
2023/04/09 10:38:13;;;;;;;1.58;1.30;;;;;;;;;;5066104;28;20527;-46
2023/04/09 10:40:41;;;;;;;1.02;0.93;;;;;;;;;;5048272;28;20694;-45
2023/04/09 10:43:08;;;;;;;0.95;0.88;;;;;;;;;;5066020;28;20085;-46
2023/04/09 10:45:41;;;;;;;1.23;0.80;;;;;;;;;;5066294;28;20084;-46
2023/04/09 10:48:13;;;;;;;1.20;1.10;;;;;;;;;;5066034;28;20139;-48
2023/04/09 10:50:43;;;;;;;1.67;1.58;;;;;;;;;;5066562;28;20160;-44
2023/04/09 10:53:20;;;;;;;1.20;1.10;;;;;;;;;;5066119;28;20096;-44
2023/04/09 10:55:50;;;;;;;1.65;1.27;;;;;;;;;;5066272;28;20080;-45
2023/04/09 10:58:16;;;;;;;1.08;1.00;;;;;;;;;;5069152;28;20077;-48
2023/04/09 11:00:43;;;;;;;1.05;0.95;;;;;;;;;;5069001;28;20467;-48
2023/04/09 11:03:16;;;;;;;1.30;0.98;;;;;;;;;;5065729;28;20077;-45
2023/04/09 11:05:43;;;;;;;1.05;0.90;;;;;;;;;;5065507;28;20077;-46
2023/04/09 11:08:10;;;;;;;1.13;1.02;;;;;;;;;;5067164;28;20164;-48
2023/04/09 11:10:36;;;;;;;1.48;1.35;;;;;;;;;;5066006;28;20562;-45
2023/04/09 11:13:03;;;;;;;1.25;1.13;;;;;;;;;;5066228;28;20093;-45
2023/04/09 11:15:29;;;;;;;0.73;0.73;;;;;;;;;;5065718;28;20088;-45
2023/04/09 11:17:56;;;;;;;0.80;0.80;;;;;;;;;;5065823;28;20105;-45
2023/04/09 11:20:24;;;;;;;1.08;0.93;;;;;;;;;;5065931;28;20091;-49
2023/04/09 11:22:51;;;;;;;1.27;1.00;;;;;;;;;;5068723;28;20077;-45
2023/04/09 11:25:21;;;;;;;1.30;1.15;;;;;;;;;;5068462;28;20076;-45
2023/04/09 11:27:47;;;;;;;1.00;0.88;;;;;;;;;;5068255;28;20073;-47
2023/04/09 11:30:13;;;;;;;1.13;1.02;;;;;;;;;;5067308;28;20192;-46
2023/04/09 11:32:40;;;;;;;1.80;1.30;;;;;;;;;;5050986;28;20092;-46
2023/04/09 11:35:16;;;;;;;2.80;1.40;;;;;;;;;;5068944;28;20557;-45
2023/04/09 11:37:43;;;;;;;1.65;1.48;;;;;;;;;;5068402;28;20061;-47
2023/04/09 11:40:18;;;;;;;1.13;0.98;;;;;;;;;;5068284;28;20076;-44
2023/04/09 11:42:45;;;;;;;1.27;1.10;;;;;;;;;;5068090;28;20069;-47
2023/04/09 11:45:11;;;;;;;1.35;1.20;;;;;;;;;;5067873;28;20079;-47
2023/04/09 11:47:40;;;;;;;1.08;0.98;;;;;;;;;;5068999;28;20127;-45
2023/04/09 11:50:07;;;;;;;1.27;0.90;;;;;;;;;;5067995;28;20544;-45
2023/04/09 11:52:34;;;;;;;1.13;1.02;;;;;;;;;;5068380;28;20135;-45
2023/04/09 11:55:01;;;;;;;0.88;0.80;;;;;;;;;;5067750;28;20073;-45
2023/04/09 11:57:37;;;;;;;1.20;1.10;;;;;;;;;;5066953;28;20108;-45
2023/04/09 12:00:23;;;;;;;0.60;0.60;;;;;;;;;;5057126;28;20099;-46
2023/04/09 12:02:58;;;;;;;0.70;0.70;;;;;;;;;;5067649;28;20104;-45
2023/04/09 12:05:25;;;;;;;0.80;0.60;;;;;;;;;;5068101;28;20744;-46
2023/04/09 12:07:52;;;;;;;1.73;1.05;;;;;;;;;;5067653;28;20568;-47
2023/04/09 12:10:18;;;;;;;0.75;0.75;;;;;;;;;;5067185;28;20148;-48
2023/04/09 12:12:46;;;;;;;0.80;0.70;;;;;;;;;;5067355;28;20093;-46
2023/04/09 12:15:19;;;;;;;0.77;0.77;;;;;;;;;;5067750;28;20447;-46
2023/04/09 12:17:53;;;;;;;0.80;0.80;;;;;;;;;;5067565;28;20105;-45
2023/04/09 12:20:36;;;;;;;1.13;1.02;;;;;;;;;;5067281;28;20069;-48
2023/04/09 12:23:03;;;;;;;0.82;0.80;;;;;;;;;;5067419;28;20157;-46
2023/04/09 12:25:30;;;;;;;0.93;0.90;;;;;;;;;;5066571;28;20763;-45
2023/04/09 12:27:56;;;;;;;0.80;0.80;;;;;;;;;;5066780;28;20575;-45
2023/04/09 12:30:24;;;;;;;0.93;0.80;;;;;;;;;;5066585;28;20081;-46
2023/04/09 12:32:50;;;;;;;0.90;0.77;;;;;;;;;;5066387;28;20085;-45
2023/04/09 12:35:17;;;;;;;0.90;0.90;;;;;;;;;;5067012;28;20077;-45
2023/04/09 12:37:43;;;;;;;0.70;0.70;;;;;;;;;;5067452;28;20065;-46
2023/04/09 12:40:12;;;;;;;0.73;0.73;;;;;;;;;;5066851;28;20069;-49
2023/04/09 12:42:38;;;;;;;0.60;0.60;;;;;;;;;;5067293;28;20563;-46
2023/04/09 12:45:05;;;;;;;0.60;0.60;;;;;;;;;;5067370;28;20127;-45
2023/04/09 12:47:32;;;;;;;0.75;0.50;;;;;;;;;;5067058;28;20076;-48
2023/04/09 12:49:58;;;;;;;0.70;0.70;;;;;;;;;;5066880;28;20604;-46
2023/04/09 12:52:24;;;;;;;0.65;0.65;;;;;;;;;;5066512;28;20180;-45
2023/04/09 12:54:51;;;;;;;0.70;0.70;;;;;;;;;;5066728;28;20108;-45
2023/04/09 12:57:17;;;;;;;1.13;0.77;;;;;;;;;;5066482;28;20091;-45
2023/04/09 12:59:43;;;;;;;0.60;0.60;;;;;;;;;;5066692;28;20551;-46
2023/04/09 13:02:09;;;;;;;0.73;0.50;;;;;;;;;;5065822;28;20077;-44
2023/04/09 13:04:35;;;;;;;0.73;0.73;;;;;;;;;;5067058;28;20081;-46
2023/04/09 13:07:01;;;;;;;0.70;0.70;;;;;;;;;;5066535;28;20148;-45
2023/04/09 13:09:28;;;;;;;0.50;0.50;;;;;;;;;;5062044;28;20188;-45
2023/04/09 13:11:54;;;;;;;0.60;0.60;;;;;;;;;;5064126;28;20084;-45
2023/04/09 13:14:21;;;;;;;0.68;0.68;;;;;;;;;;5066346;28;20609;-46
2023/04/09 13:16:48;;;;;;;0.70;0.70;;;;;;;;;;5066321;28;20149;-45
2023/04/09 13:19:15;;;;;;;0.90;0.90;;;;;;;;;;5065818;28;20536;-45
2023/04/09 13:21:42;;;;;;;0.52;0.52;;;;;;;;;;5066287;28;20501;-46
2023/04/09 13:24:09;;;;;;;0.90;0.70;;;;;;;;;;5067177;28;20234;-46
2023/04/09 13:26:35;;;;;;;0.60;0.60;;;;;;;;;;5066682;28;20077;-46
2023/04/09 13:29:03;;;;;;;0.60;0.60;;;;;;;;;;5065423;28;20127;-46
2023/04/09 13:31:29;;;;;;;0.70;0.70;;;;;;;;;;5065256;28;20530;-46
2023/04/09 13:33:55;;;;;;;0.70;0.70;;;;;;;;;;5066083;28;20154;-46
2023/04/09 13:36:21;;;;;;;0.70;0.70;;;;;;;;;;5063971;28;20079;-45
2023/04/09 13:38:47;;;;;;;0.52;0.52;;;;;;;;;;5063161;28;20080;-44
2023/04/09 13:41:14;;;;;;;0.50;0.50;;;;;;;;;;5062738;28;20081;-45
2023/04/09 13:43:40;;;;;;;0.60;0.60;;;;;;;;;;5063313;28;20210;-44
2023/04/09 13:46:06;;;;;;;0.50;0.50;;;;;;;;;;5064602;28;20116;-45
2023/04/09 13:48:32;;;;;;;0.50;0.50;;;;;;;;;;5063197;28;20571;-44
2023/04/09 13:50:58;;;;;;;0.30;0.30;;;;;;;;;;5064155;28;20081;-48
2023/04/09 13:53:25;;;;;;;0.40;0.40;;;;;;;;;;5062889;28;20093;-46
2023/04/09 13:55:52;;;;;;;0.20;0.20;;;;;;;;;;5044637;28;20084;-47
2023/04/09 13:58:21;;;;;;;0.52;0.52;;;;;;;;;;5063138;28;20463;-45
2023/04/09 14:00:47;;;;;;;0.32;0.32;;;;;;;;;;5063253;28;20065;-46
2023/04/09 14:03:13;;;;;;;0.38;0.38;;;;;;;;;;5063950;28;20085;-47
2023/04/09 14:05:40;;;;;;;0.30;0.30;;;;;;;;;;5064676;28;20693;-45
2023/04/09 14:08:07;;;;;;;0.28;0.28;;;;;;;;;;5063610;28;20467;-46
2023/04/09 14:10:33;;;;;;;0.50;0.50;;;;;;;;;;5064089;28;20096;-48
2023/04/09 14:13:00;;;;;;;0.40;0.40;;;;;;;;;;5063542;28;20103;-45
2023/04/09 14:15:28;;;;;;;0.47;0.47;;;;;;;;;;5064046;28;20093;-46
2023/04/09 14:17:54;;;;;;;0.40;0.40;;;;;;;;;;5063703;28;20123;-45
2023/04/09 14:20:23;;;;;;;0.50;0.50;;;;;;;;;;5063874;28;20107;-48
2023/04/09 14:22:49;;;;;;;0.40;0.40;;;;;;;;;;5062203;28;20069;-45
2023/04/09 14:25:16;;;;;;;0.63;0.40;;;;;;;;;;5063323;28;20131;-47
2023/04/09 14:27:42;;;;;;;0.40;0.40;;;;;;;;;;5063868;28;20546;-49
2023/04/09 14:30:12;;;;;;;0.40;0.40;;;;;;;;;;5064474;28;20077;-48
2023/04/09 14:32:38;;;;;;;0.40;0.40;;;;;;;;;;5063944;28;20482;-45
2023/04/09 14:35:04;;;;;;;0.38;0.38;;;;;;;;;;5044454;28;20085;-47
2023/04/09 14:37:30;;;;;;;0.40;0.40;;;;;;;;;;5063106;28;20126;-45
2023/04/09 14:39:57;;;;;;;0.40;0.40;;;;;;;;;;5062504;28;20539;-45
2023/04/09 14:42:23;;;;;;;0.30;0.30;;;;;;;;;;5063823;28;20081;-47
2023/04/09 14:44:50;;;;;;;0.45;0.45;;;;;;;;;;5045771;28;20087;-45
2023/04/09 14:47:16;;;;;;;0.77;0.50;;;;;;;;;;5063417;28;20104;-45
2023/04/09 14:49:42;;;;;;;0.40;0.40;;;;;;;;;;5063465;28;20135;-49
2023/04/09 14:52:08;;;;;;;0.40;0.40;;;;;;;;;;5062754;28;20105;-44
2023/04/09 14:54:36;;;;;;;0.50;0.50;;;;;;;;;;5062928;28;20565;-48
2023/04/09 14:57:02;;;;;;;0.45;0.45;;;;;;;;;;5063320;28;20155;-45
2023/04/09 14:59:28;;;;;;;0.40;0.40;;;;;;;;;;5066955;28;20159;-47
2023/04/09 15:01:54;;;;;;;0.50;0.50;;;;;;;;;;5070160;28;20445;-45
2023/04/09 15:04:20;;;;;;;0.50;0.50;;;;;;;;;;5067242;28;20081;-48
2023/04/09 15:06:46;;;;;;;0.50;0.47;;;;;;;;;;5067379;28;20471;-46
2023/04/09 15:09:13;;;;;;;0.47;0.47;;;;;;;;;;5066128;28;20081;-46
2023/04/09 15:11:39;;;;;;;0.40;0.40;;;;;;;;;;5067717;28;20092;-44
2023/04/09 15:14:05;;;;;;;0.40;0.40;;;;;;;;;;5067851;28;20180;-45
2023/04/09 15:16:35;;;;;;;0.50;0.50;;;;;;;;;;5067384;28;20156;-46
2023/04/09 15:19:02;;;;;;;0.50;0.50;;;;;;;;;;5049056;28;20415;-47
2023/04/09 15:21:28;;;;;;;0.40;0.40;;;;;;;;;;5066970;28;20103;-47
2023/04/09 15:23:55;;;;;;;0.35;0.35;;;;;;;;;;5066500;28;20073;-48
2023/04/09 15:26:21;;;;;;;0.50;0.50;;;;;;;;;;5066536;28;20544;-46
2023/04/09 15:28:47;;;;;;;0.57;0.50;;;;;;;;;;5066419;28;20116;-47
2023/04/09 15:31:13;;;;;;;0.88;0.55;;;;;;;;;;5066485;28;20077;-45
2023/04/09 15:33:42;;;;;;;0.40;0.40;;;;;;;;;;5066369;28;20568;-45
2023/04/09 15:36:09;;;;;;;0.40;0.40;;;;;;;;;;5066954;28;20092;-48
2023/04/09 15:38:34;;;;;;;0.63;0.40;;;;;;;;;;5066273;28;20081;-47
2023/04/09 15:41:01;;;;;;;0.57;0.50;;;;;;;;;;5048139;28;20509;-45
2023/04/09 15:43:29;;;;;;;0.52;0.52;;;;;;;;;;5066637;28;20089;-46
2023/04/09 15:45:55;;;;;;;0.50;0.50;;;;;;;;;;5066637;28;20184;-45
2023/04/09 15:48:21;;;;;;;0.68;0.50;;;;;;;;;;5066342;28;20114;-47
2023/04/09 15:50:47;;;;;;;0.50;0.50;;;;;;;;;;5065490;28;20085;-45
2023/04/09 15:53:14;;;;;;;0.95;0.57;;;;;;;;;;5047677;28;20305;-45
2023/04/09 15:55:41;;;;;;;0.40;0.40;;;;;;;;;;5066877;28;20143;-45
2023/04/09 15:58:08;;;;;;;0.40;0.40;;;;;;;;;;5066725;28;20402;-45
2023/04/09 16:00:34;;;;;;;0.40;0.40;;;;;;;;;;5065785;28;20096;-45
2023/04/09 16:03:00;;;;;;;0.40;0.40;;;;;;;;;;5066494;28;20080;-47
2023/04/09 16:05:26;;;;;;;0.50;0.50;;;;;;;;;;5065891;28;20085;-45
2023/04/09 16:07:52;;;;;;;0.40;0.40;;;;;;;;;;5064160;28;20077;-45
2023/04/09 16:10:18;;;;;;;0.35;0.35;;;;;;;;;;5065967;28;20069;-47
2023/04/09 16:12:44;;;;;;;0.68;0.52;;;;;;;;;;5066262;28;20093;-47
2023/04/09 16:15:10;;;;;;;0.43;0.43;;;;;;;;;;5066100;28;20536;-46
2023/04/09 16:17:37;;;;;;;0.45;0.45;;;;;;;;;;5066984;28;20077;-49
2023/04/09 16:20:04;;;;;;;0.35;0.35;;;;;;;;;;5065584;28;20127;-48
2023/04/09 16:22:31;;;;;;;0.43;0.40;;;;;;;;;;5065232;28;20138;-46
2023/04/09 16:24:57;;;;;;;0.40;0.40;;;;;;;;;;5065760;28;20130;-46
2023/04/09 16:27:23;;;;;;;0.65;0.65;;;;;;;;;;5065618;28;20085;-46
2023/04/09 16:29:49;;;;;;;0.40;0.40;;;;;;;;;;5064798;28;20065;-47
2023/04/09 16:32:15;;;;;;;0.55;0.55;;;;;;;;;;5064627;28;20077;-46
2023/04/09 16:34:41;;;;;;;0.50;0.50;;;;;;;;;;5064761;28;20083;-45
2023/04/09 16:37:08;;;;;;;0.50;0.50;;;;;;;;;;5066165;28;20432;-45
2023/04/09 16:39:36;;;;;;;0.50;0.50;;;;;;;;;;5047288;28;20080;-46
2023/04/09 16:42:03;;;;;;;0.45;0.45;;;;;;;;;;5064936;28;20092;-48
2023/04/09 16:44:29;;;;;;;0.45;0.45;;;;;;;;;;5046393;28;20077;-47
2023/04/09 16:46:55;;;;;;;0.50;0.50;;;;;;;;;;5065338;28;20203;-46
2023/04/09 16:49:21;;;;;;;0.52;0.52;;;;;;;;;;5064909;28;20081;-46
2023/04/09 16:51:50;;;;;;;0.40;0.40;;;;;;;;;;5059084;28;20371;-46
2023/04/09 16:54:16;;;;;;;0.50;0.50;;;;;;;;;;5064963;28;20128;-45
2023/04/09 16:56:42;;;;;;;0.60;0.60;;;;;;;;;;5065455;28;20511;-48
2023/04/09 16:59:10;;;;;;;0.73;0.73;;;;;;;;;;5065483;28;20554;-49
2023/04/09 17:01:36;;;;;;;0.95;0.60;;;;;;;;;;5066188;28;20543;-47
2023/04/09 17:04:03;;;;;;;0.70;0.70;;;;;;;;;;5065178;28;20085;-47
2023/04/09 17:06:29;;;;;;;0.85;0.70;;;;;;;;;;5064961;28;20077;-47
2023/04/09 17:08:56;;;;;;;0.55;0.55;;;;;;;;;;5063910;28;20135;-46
2023/04/09 17:11:22;;;;;;;1.40;0.60;;;;;;;;;;5065096;28;20084;-45
2023/04/09 17:13:48;;;;;;;0.65;0.65;;;;;;;;;;5064845;28;20101;-47
2023/04/09 17:16:16;;;;;;;0.40;0.40;;;;;;;;;;5065228;28;20474;-46
2023/04/09 17:18:44;;;;;;;0.50;0.50;;;;;;;;;;5065227;28;20081;-47
2023/04/09 17:21:11;;;;;;;0.50;0.50;;;;;;;;;;5047229;28;20103;-47
2023/04/09 17:23:37;;;;;;;0.60;0.60;;;;;;;;;;5063498;28;20528;-49
2023/04/09 17:26:03;;;;;;;1.15;1.05;;;;;;;;;;5046878;28;20088;-46
2023/04/09 17:28:29;;;;;;;1.80;1.02;;;;;;;;;;5063710;28;20080;-46
2023/04/09 17:30:55;;;;;;;1.08;0.90;;;;;;;;;;5064731;28;20605;-47
2023/04/09 17:33:22;;;;;;;0.60;0.60;;;;;;;;;;5064666;28;20096;-47
2023/04/09 17:35:48;;;;;;;0.50;0.50;;;;;;;;;;5063913;28;20164;-49
2023/04/09 17:38:19;;;;;;;0.70;0.70;;;;;;;;;;5064419;28;20156;-48
2023/04/09 17:40:45;;;;;;;1.58;0.80;;;;;;;;;;5044363;28;20131;-46
2023/04/09 17:43:13;;;;;;;0.95;0.68;;;;;;;;;;5064122;28;20081;-46
2023/04/09 17:45:39;;;;;;;0.50;0.50;;;;;;;;;;5065066;28;20111;-46
2023/04/09 17:48:05;;;;;;;0.75;0.70;;;;;;;;;;5063414;28;20073;-46
2023/04/09 17:50:32;;;;;;;0.60;0.60;;;;;;;;;;5064350;28;20631;-47
2023/04/09 17:52:57;;;;;;;0.40;0.40;;;;;;;;;;5063776;28;20584;-47
2023/04/09 17:55:25;;;;;;;0.50;0.50;;;;;;;;;;5064000;28;20089;-46
2023/04/09 17:57:51;;;;;;;0.55;0.55;;;;;;;;;;5063231;28;20105;-47
2023/04/09 18:00:18;;;;;;;0.60;0.60;;;;;;;;;;5045332;28;20107;-48
2023/04/09 18:02:44;;;;;;;0.60;0.60;;;;;;;;;;5044631;28;20119;-45
2023/04/09 18:05:10;;;;;;;0.70;0.50;;;;;;;;;;5063895;28;20602;-44
2023/04/09 18:07:37;;;;;;;0.30;0.30;;;;;;;;;;5063150;28;20135;-45
2023/04/09 18:10:03;;;;;;;0.55;0.55;;;;;;;;;;5062313;28;20545;-45
2023/04/09 18:12:30;;;;;;;0.60;0.60;;;;;;;;;;5063169;28;20467;-49
2023/04/09 18:14:56;;;;;;;0.65;0.50;;;;;;;;;;5044836;28;20179;-45
2023/04/09 18:17:22;;;;;;;0.68;0.43;;;;;;;;;;5064112;28;20073;-45
2023/04/09 18:19:48;;;;;;;0.82;0.65;;;;;;;;;;5062472;28;20160;-47
2023/04/09 18:22:14;;;;;;;0.85;0.70;;;;;;;;;;5063134;28;20080;-48
2023/04/09 18:24:41;;;;;;;0.55;0.47;;;;;;;;;;5064159;28;20130;-46
2023/04/09 18:27:07;;;;;;;1.10;0.65;;;;;;;;;;5063142;28;20081;-48
2023/04/09 18:29:33;;;;;;;0.77;0.77;;;;;;;;;;5062556;28;20130;-47
2023/04/09 18:32:00;;;;;;;0.63;0.63;;;;;;;;;;5062481;28;20081;-46
2023/04/09 18:34:26;;;;;;;1.80;0.90;;;;;;;;;;5042314;28;20097;-48
2023/04/09 18:36:53;;;;;;;1.00;0.90;;;;;;;;;;5063129;28;20744;-45
2023/04/09 18:39:21;;;;;;;1.23;1.10;;;;;;;;;;5063897;28;20080;-48
2023/04/09 18:41:48;;;;;;;2.08;1.05;;;;;;;;;;5045019;28;20463;-48
2023/04/09 18:44:15;;;;;;;1.63;1.10;;;;;;;;;;5063255;28;20101;-45
2023/04/09 18:46:42;;;;;;;1.02;0.90;;;;;;;;;;5045524;28;20680;-45
2023/04/09 18:49:09;;;;;;;1.25;0.90;;;;;;;;;;5063801;28;20215;-46
2023/04/09 18:51:35;;;;;;;1.27;1.08;;;;;;;;;;5062381;28;20173;-47
2023/04/09 18:54:01;;;;;;;1.13;0.90;;;;;;;;;;5061559;28;20093;-46
2023/04/09 18:56:27;;;;;;;0.93;0.90;;;;;;;;;;5063111;28;20553;-46
2023/04/09 18:58:54;;;;;;;5.03;0.90;;;;;;;;;;5062453;28;20092;-46
2023/04/09 19:01:20;;;;;;;1.65;1.00;;;;;;;;;;5065644;28;20138;-45
2023/04/09 19:03:47;;;;;;;0.80;0.77;;;;;;;;;;5062314;28;20077;-49
2023/04/09 19:06:16;;;;;;;0.90;0.82;;;;;;;;;;5062872;28;20092;-44
2023/04/09 19:08:44;;;;;;;0.73;0.60;;;;;;;;;;5062791;28;20078;-44
2023/04/09 19:11:11;;;;;;;0.80;0.80;;;;;;;;;;5064014;28;20088;-49
2023/04/09 19:13:37;;;;;;;1.02;0.68;;;;;;;;;;5064060;28;20198;-46
2023/04/09 19:16:04;;;;;;;0.70;0.70;;;;;;;;;;5045667;28;20147;-47
2023/04/09 19:18:30;;;;;;;1.13;0.98;;;;;;;;;;5063166;28;20069;-47
2023/04/09 19:20:56;;;;;;;1.00;0.80;;;;;;;;;;5062434;28;20080;-48
2023/04/09 19:23:24;;;;;;;0.95;0.80;;;;;;;;;;5062106;28;20292;-48
2023/04/09 19:25:52;;;;;;;0.80;0.80;;;;;;;;;;5063334;28;20104;-48
2023/04/09 19:28:18;;;;;;;1.00;0.85;;;;;;;;;;5062835;28;20139;-47
2023/04/09 19:30:44;;;;;;;1.20;1.00;;;;;;;;;;5045072;28;20081;-46
2023/04/09 19:33:10;;;;;;;1.33;1.20;;;;;;;;;;5044304;28;20159;-46
2023/04/09 19:35:39;;;;;;;1.75;1.58;;;;;;;;;;5044826;28;20135;-46
2023/04/09 19:38:06;;;;;;;2.00;1.73;;;;;;;;;;5062652;28;20120;-48
2023/04/09 19:40:32;;;;;;;4.28;2.30;;;;;;;;;;5062206;28;20085;-44
2023/04/09 19:42:59;;;;;;;3.55;1.90;;;;;;;;;;5064260;28;20274;-45
2023/04/09 19:45:28;;;;;;;2.15;1.63;;;;;;;;;;5046112;28;20097;-47
2023/04/09 19:47:54;;;;;;;3.17;2.28;;;;;;;;;;5046946;28;20073;-46